Terminal Aerodrome Forecast
Issued by NWS

Home | Current Version | Previous Version | Graphics & Text | Print | Product List | Glossary On
Versions: 1 2 3 4 5 6 7 8 9 10 11 12 13
193
FTUS43 KICT 192322
TAFCNU
TAF
KCNU 192322Z 2000/2024 17010KT P6SM FEW250
     FM201700 17017G25KT P6SM SCT150=

USA.gov is the U.S. government's official web portal to all federal, state and local government web resources and services.